Time;durP1;ratioP1;P1;durP2;ratioP2;P2;SDS_P1;SDS_P2;PMS_P1;PMS_P2;Temp;Humidity;BMP_temperature;BMP_pressure;BME280_temperature;BME280_humidity;BME280_pressure;Samples;Min_cycle;Max_cycle;Signal;HPM_P1;HPM_P2
2022/05/12 00:00:22;;;;;;;15.90;2.75;;;;;;;16.57;72.21;101170.28;4988979;28;20046;-64
2022/05/12 00:02:50;;;;;;;21.17;3.72;;;;;;;16.55;72.21;101172.59;5003994;28;20084;-64
2022/05/12 00:05:18;;;;;;;11.68;3.08;;;;;;;16.75;71.42;101174.53;4997748;28;20513;-64
2022/05/12 00:07:46;;;;;;;20.80;3.83;;;;;;;16.79;71.28;101169.88;4991964;28;20413;-64
2022/05/12 00:10:15;;;;;;;13.30;3.13;;;;;;;16.88;70.67;101171.44;4978808;28;20054;-63
2022/05/12 00:12:43;;;;;;;16.23;2.93;;;;;;;17.16;69.86;101177.16;5012051;28;20057;-64
2022/05/12 00:15:14;;;;;;;15.88;3.03;;;;;;;16.89;70.67;101169.47;4999884;28;20312;-68
2022/05/12 00:17:44;;;;;;;14.40;3.47;;;;;;;16.78;70.87;101171.06;5015756;28;20050;-63
2022/05/12 00:20:12;;;;;;;;;;;;;;;16.80;71.08;101177.09;5014099;28;20045;-63
2022/05/12 00:22:39;;;;;;;16.38;3.13;;;;;;;16.84;71.06;101180.81;4987185;28;19948;-64
2022/05/12 00:25:15;;;;;;;16.45;2.83;;;;;;;16.51;72.50;101185.59;5009821;28;20065;-68
2022/05/12 00:27:43;;;;;;;12.32;3.22;;;;;;;16.33;73.36;101190.44;4978738;28;20054;-69
2022/05/12 00:30:11;;;;;;;14.63;3.17;;;;;;;16.48;72.79;101189.03;4993847;28;20050;-70
2022/05/12 00:32:41;;;;;;;15.95;3.53;;;;;;;16.35;73.12;101201.22;4994171;28;20058;-64
2022/05/12 00:35:10;;;;;;;20.25;3.15;;;;;;;16.23;73.53;101207.53;5003255;28;20054;-70
2022/05/12 00:37:39;;;;;;;18.90;3.30;;;;;;;16.16;74.11;101210.03;4992122;28;20058;-64
2022/05/12 00:40:09;;;;;;;19.88;4.00;;;;;;;16.34;72.92;101205.13;4992171;28;20417;-65
2022/05/12 00:42:36;;;;;;;16.63;3.30;;;;;;;16.31;72.93;101214.16;5008932;28;20057;-64
2022/05/12 00:45:04;;;;;;;15.90;3.05;;;;;;;16.40;72.59;101209.34;5001461;28;20149;-63
2022/05/12 00:47:32;;;;;;;16.52;3.63;;;;;;;16.53;71.65;101213.84;5003232;28;20054;-63
2022/05/12 00:50:00;;;;;;;16.42;3.30;;;;;;;16.72;70.73;101209.41;5002428;28;20461;-64
2022/05/12 00:52:29;;;;;;;16.55;3.88;;;;;;;16.38;71.45;101229.16;4980463;28;20080;-63
2022/05/12 00:55:01;;;;;;;14.03;3.17;;;;;;;16.04;73.34;101220.28;5003840;28;20049;-70
2022/05/12 00:57:40;;;;;;;14.40;3.10;;;;;;;16.12;73.02;101234.13;4997354;28;20053;-63
2022/05/12 01:00:11;;;;;;;15.60;3.45;;;;;;;15.86;74.20;101224.31;4970319;28;20069;-64
2022/05/12 01:02:40;;;;;;;20.38;3.70;;;;;;;15.83;74.43;101242.44;4983258;28;20062;-69
2022/05/12 01:05:08;;;;;;;20.33;4.20;;;;;;;15.71;74.92;101234.84;4990041;28;20084;-70
2022/05/12 01:07:36;;;;;;;20.10;4.05;;;;;;;15.81;74.80;101230.88;5009096;28;20073;-64
2022/05/12 01:10:05;;;;;;;18.52;3.92;;;;;;;15.97;73.89;101226.34;5014102;28;20401;-63
2022/05/12 01:12:32;;;;;;;16.67;3.63;;;;;;;16.14;73.08;101236.53;5002050;28;20053;-64
2022/05/12 01:15:00;;;;;;;19.33;4.05;;;;;;;15.97;74.09;101233.91;4995651;28;20050;-63
2022/05/12 01:17:27;;;;;;;20.92;3.88;;;;;;;15.98;73.71;101241.88;4995001;28;20632;-64
2022/05/12 01:19:55;;;;;;;17.55;3.80;;;;;;;16.25;71.96;101235.78;5000916;28;20054;-69
2022/05/12 01:22:51;;;;;;;17.80;3.95;;;;;;;16.37;70.85;101244.19;5009539;28;20050;-69
2022/05/12 01:25:22;;;;;;;16.02;3.33;;;;;;;16.16;70.65;101243.38;4951841;28;20042;-63
2022/05/12 01:27:49;;;;;;;15.43;3.25;;;;;;;16.31;70.55;101247.53;4997026;28;20485;-64
2022/05/12 01:30:19;;;;;;;15.07;3.10;;;;;;;16.12;70.61;101252.75;4978671;28;20054;-64
2022/05/12 01:32:47;;;;;;;19.88;4.20;;;;;;;15.96;71.45;101255.28;5000565;28;20077;-69
2022/05/12 01:35:18;;;;;;;20.10;4.28;;;;;;;15.96;71.60;101255.28;5015155;28;20054;-70
2022/05/12 01:37:46;;;;;;;21.00;4.80;;;;;;;15.50;74.70;101252.59;5009664;28;20386;-64
2022/05/12 01:40:17;;;;;;;22.95;4.65;;;;;;;15.43;75.38;101255.09;4989354;28;20061;-64
2022/05/12 01:42:44;;;;;;;16.30;4.43;;;;;;;15.31;76.55;101247.41;5010057;28;20060;-69
2022/05/12 01:45:13;;;;;;;17.08;4.90;;;;;;;15.22;77.11;101262.47;5015018;28;20505;-69
2022/05/12 01:47:41;;;;;;;17.45;4.53;;;;;;;15.48;76.13;101255.69;5000910;28;20046;-64
2022/05/12 01:50:09;;;;;;;20.27;4.20;;;;;;;15.65;75.79;101263.16;5006945;28;20054;-69
2022/05/12 01:52:39;;;;;;;19.58;4.80;;;;;;;15.61;74.94;101271.34;5014439;28;20421;-69
2022/05/12 01:55:06;;;;;;;20.15;3.88;;;;;;;15.36;76.34;101280.53;4980621;28;20061;-64
2022/05/12 01:57:34;;;;;;;18.35;3.97;;;;;;;15.20;76.39;101279.44;4982025;28;20527;-64
2022/05/12 02:00:06;;;;;;;16.58;3.88;;;;;;;14.90;77.00;101285.22;4987893;28;20461;-64
2022/05/12 02:02:37;;;;;;;18.13;4.18;;;;;;;15.09;76.70;101288.44;5001291;28;20053;-69
2022/05/12 02:05:09;;;;;;;17.17;4.00;;;;;;;15.25;75.00;101293.16;5014211;28;20057;-68
2022/05/12 02:07:40;;;;;;;18.23;3.65;;;;;;;15.32;74.40;101290.69;5014272;28;20054;-68
2022/05/12 02:10:09;;;;;;;17.10;3.65;;;;;;;14.93;75.73;101288.16;4991707;28;20053;-69
2022/05/12 02:12:36;;;;;;;16.23;4.20;;;;;;;14.84;75.16;101303.16;4996759;28;20046;-68
2022/05/12 02:15:05;;;;;;;13.95;3.25;;;;;;;14.88;75.48;101309.69;5004470;28;20518;-68
2022/05/12 02:17:33;;;;;;;17.00;3.40;;;;;;;14.79;74.67;101306.94;5005228;28;20049;-69
2022/05/12 02:20:01;;;;;;;15.52;3.75;;;;;;;14.91;74.33;101298.75;5001846;28;20053;-69
2022/05/12 02:22:32;;;;;;;11.23;2.95;;;;;;;15.00;73.71;101305.13;5014269;28;20151;-64
2022/05/12 02:25:00;;;;;;;13.73;3.60;;;;;;;14.85;73.94;101313.97;4996772;28;20061;-69
2022/05/12 02:27:27;;;;;;;11.02;3.50;;;;;;;15.02;73.10;101304.78;4997210;28;20042;-69
2022/05/12 02:29:55;;;;;;;14.95;3.55;;;;;;;14.95;70.28;101308.06;5008863;28;20046;-69
2022/05/12 02:32:22;;;;;;;8.05;1.92;;;;;;;14.72;68.35;101325.19;4996363;28;20065;-69
2022/05/12 02:34:49;;;;;;;8.98;1.98;;;;;;;14.80;68.27;101329.94;5000739;28;20046;-69
2022/05/12 02:37:17;;;;;;;9.25;2.55;;;;;;;14.76;66.89;101323.41;4963633;28;20054;-63
2022/05/12 02:39:44;;;;;;;11.32;1.83;;;;;;;14.62;67.54;101320.81;5007477;28;20057;-64
2022/05/12 02:42:11;;;;;;;11.27;2.22;;;;;;;14.84;67.26;101328.13;4977326;28;20055;-64
2022/05/12 02:44:39;;;;;;;8.38;1.92;;;;;;;15.12;66.31;101346.88;5024824;28;20539;-64
2022/05/12 02:47:07;;;;;;;10.60;2.53;;;;;;;14.63;68.32;101341.84;4994360;28;20057;-65
2022/05/12 02:49:35;;;;;;;15.48;2.63;;;;;;;14.72;68.40;101339.88;4980141;28;20058;-64
2022/05/12 02:52:04;;;;;;;9.30;2.33;;;;;;;15.06;67.50;101339.06;4986547;28;20057;-64
2022/05/12 02:54:31;;;;;;;10.48;2.28;;;;;;;15.07;67.95;101337.91;4986730;28;20081;-63
2022/05/12 02:56:59;;;;;;;11.75;2.60;;;;;;;14.99;68.36;101333.19;5016381;28;20073;-64
2022/05/12 02:59:26;;;;;;;10.23;2.60;;;;;;;14.97;68.52;101339.06;4980945;28;20061;-69
2022/05/12 03:01:54;;;;;;;14.27;3.17;;;;;;;15.06;68.98;101339.88;4987399;28;20064;-69
2022/05/12 03:04:21;;;;;;;11.98;3.00;;;;;;;14.88;69.55;101346.59;5000256;28;20058;-70
2022/05/12 03:06:48;;;;;;;11.27;2.47;;;;;;;15.07;68.78;101349.84;5008594;28;20054;-69
2022/05/12 03:09:16;;;;;;;9.95;2.55;;;;;;;14.93;69.51;101362.22;4994649;28;20454;-69
2022/05/12 03:11:43;;;;;;;9.43;2.53;;;;;;;14.91;69.66;101351.47;5009955;28;20069;-69
2022/05/12 03:14:11;;;;;;;10.18;2.75;;;;;;;15.16;69.05;101363.69;4999485;28;20497;-70
2022/05/12 03:16:38;;;;;;;10.40;2.20;;;;;;;15.35;68.20;101345.53;4995297;28;20046;-70
2022/05/12 03:19:06;;;;;;;9.77;2.30;;;;;;;14.78;67.80;101363.56;5004215;28;20500;-69
2022/05/12 03:21:33;;;;;;;14.75;2.33;;;;;;;14.69;68.92;101365.50;4998967;28;20046;-69
2022/05/12 03:24:01;;;;;;;12.75;2.50;;;;;;;14.65;69.24;101365.34;5003818;28;20489;-69
2022/05/12 03:26:28;;;;;;;12.98;2.47;;;;;;;14.80;67.58;101361.28;5016053;28;20057;-69
2022/05/12 03:28:55;;;;;;;9.35;2.10;;;;;;;14.77;67.97;101361.13;5004116;28;20057;-69
2022/05/12 03:31:23;;;;;;;16.20;2.60;;;;;;;14.70;67.95;101360.78;5007468;28;20052;-69
2022/05/12 03:33:51;;;;;;;12.65;2.63;;;;;;;14.74;67.90;101364.50;4979141;28;20054;-70
2022/05/12 03:36:18;;;;;;;10.98;1.90;;;;;;;14.36;68.88;101362.38;4998917;28;20050;-70
2022/05/12 03:38:45;;;;;;;20.67;2.85;;;;;;;14.52;68.33;101362.72;4982869;28;20065;-70
2022/05/12 03:41:13;;;;;;;17.23;2.53;;;;;;;14.18;69.78;101368.97;4997611;28;20080;-69
2022/05/12 03:46:30;;;;;;;11.98;2.53;;;;;;;14.14;70.50;101359.66;5014726;28;20046;-69
2022/05/12 03:49:01;;;;;;;14.50;2.47;;;;;;;14.02;71.54;101364.16;5015843;28;20058;-69
2022/05/12 03:51:28;;;;;;;13.63;2.28;;;;;;;14.42;70.16;101366.59;5006625;28;20041;-69
2022/05/12 03:53:56;;;;;;;9.35;2.50;;;;;;;14.52;69.83;101360.75;5011281;28;20076;-64
2022/05/12 03:56:23;;;;;;;14.15;2.38;;;;;;;14.88;68.62;101360.44;5012544;28;20065;-64
2022/05/12 03:58:50;;;;;;;14.75;2.15;;;;;;;15.01;67.97;101364.22;5003137;28;20050;-64
2022/05/12 04:01:18;;;;;;;14.93;2.50;;;;;;;14.77;68.46;101361.13;4963314;28;20055;-65
2022/05/12 04:03:45;;;;;;;12.48;2.58;;;;;;;14.80;68.79;101369.59;5009104;28;20061;-65
2022/05/12 04:06:14;;;;;;;11.38;2.75;;;;;;;14.86;68.66;101365.50;4994370;28;20050;-64
2022/05/12 04:08:42;;;;;;;14.27;2.30;;;;;;;14.63;68.92;101366.78;5001730;28;20058;-64
2022/05/12 04:11:09;;;;;;;16.15;2.92;;;;;;;14.61;69.66;101372.66;5007677;28;20062;-63
2022/05/12 04:13:37;;;;;;;10.85;2.33;;;;;;;14.22;70.47;101367.19;4978946;28;20069;-63
2022/05/12 04:16:05;;;;;;;12.23;2.58;;;;;;;14.18;71.02;101371.72;4996128;28;20061;-64
2022/05/12 04:18:32;;;;;;;13.30;2.75;;;;;;;13.88;72.67;101386.44;4979289;28;20426;-64
2022/05/12 04:21:00;;;;;;;14.88;3.10;;;;;;;14.21;71.95;101378.59;5026603;28;20048;-64
2022/05/12 04:23:27;;;;;;;12.80;3.15;;;;;;;14.14;72.04;101381.03;4980057;28;20058;-63
2022/05/12 04:26:01;;;;;;;12.25;2.95;;;;;;;13.95;72.97;101389.56;4990436;28;20081;-63
2022/05/12 04:28:29;;;;;;;19.98;2.67;;;;;;;14.17;72.77;101392.28;5011874;28;20049;-64
2022/05/12 04:30:57;;;;;;;12.93;2.58;;;;;;;14.34;71.89;101388.75;5023038;28;20050;-63
2022/05/12 04:36:10;;;;;;;16.42;3.58;;;;;;;14.10;73.32;101393.88;5002809;28;20529;-63
2022/05/12 04:38:37;;;;;;;14.32;2.88;;;;;;;14.47;72.18;101401.69;5007747;28;20081;-64
2022/05/12 04:41:06;;;;;;;16.92;2.85;;;;;;;14.66;71.34;101402.22;4979089;28;20052;-68
2022/05/12 04:43:33;;;;;;;14.93;2.67;;;;;;;14.91;69.74;101398.63;4981919;28;20055;-64
2022/05/12 04:46:00;;;;;;;11.50;2.92;;;;;;;14.99;70.01;101403.38;4979707;28;20421;-65
2022/05/12 04:48:31;;;;;;;15.32;2.63;;;;;;;15.26;68.81;101403.03;4994151;28;20046;-63
2022/05/12 04:50:59;;;;;;;14.20;2.88;;;;;;;14.73;69.30;101399.78;5014117;28;20046;-63
2022/05/12 04:53:27;;;;;;;12.80;2.42;;;;;;;14.28;71.13;101414.97;5019365;28;20052;-64
2022/05/12 04:55:55;;;;;;;16.23;3.00;;;;;;;14.11;72.54;101414.88;5013649;28;20050;-64
2022/05/12 04:58:22;;;;;;;17.25;2.95;;;;;;;14.11;72.38;101409.34;5008570;28;20508;-63
2022/05/12 05:00:49;;;;;;;15.23;2.92;;;;;;;13.96;73.47;101409.78;4984720;28;20485;-68
2022/05/12 05:03:17;;;;;;;16.63;3.25;;;;;;;14.08;72.64;101418.31;5009693;28;20056;-68
2022/05/12 05:05:47;;;;;;;15.43;3.27;;;;;;;13.95;73.24;101417.25;5022645;28;20057;-69
2022/05/12 05:08:18;;;;;;;12.85;2.60;;;;;;;14.01;73.12;101426.25;5015539;28;20053;-68
2022/05/12 05:10:46;;;;;;;18.63;3.47;;;;;;;13.77;73.64;101423.88;4997585;28;20643;-69
2022/05/12 05:13:14;;;;;;;15.80;3.00;;;;;;;13.75;74.16;101419.75;4997562;28;20049;-64
2022/05/12 05:15:41;;;;;;;18.77;3.45;;;;;;;13.63;74.70;101425.91;4996288;28;20054;-64
2022/05/12 05:18:13;;;;;;;11.60;3.15;;;;;;;13.60;75.05;101429.28;5016039;28;20050;-64
2022/05/12 05:20:44;;;;;;;20.35;3.33;;;;;;;13.57;75.71;101432.69;4994519;28;20058;-64
2022/05/12 05:23:12;;;;;;;23.65;3.88;;;;;;;13.54;75.57;101431.38;5008008;28;20041;-65
2022/05/12 05:25:39;;;;;;;21.58;4.15;;;;;;;13.67;75.11;101428.84;4996469;28;20536;-64
2022/05/12 05:28:06;;;;;;;16.40;3.90;;;;;;;13.22;77.15;101434.41;5001850;28;20057;-70
2022/05/12 05:30:34;;;;;;;14.63;3.40;;;;;;;13.47;76.40;101442.09;5010250;28;20053;-69
2022/05/12 05:33:02;;;;;;;16.55;3.38;;;;;;;13.48;76.03;101454.78;4989035;28;20053;-68
2022/05/12 05:35:29;;;;;;;18.85;3.97;;;;;;;13.78;75.85;101455.13;4998682;28;20533;-70
2022/05/12 05:37:57;;;;;;;16.13;2.88;;;;;;;14.07;74.40;101463.78;5004050;28;20062;-71
2022/05/12 05:40:28;;;;;;;16.30;3.22;;;;;;;14.29;73.32;101459.00;4995321;28;20503;-69
2022/05/12 05:42:57;;;;;;;16.67;3.00;;;;;;;14.33;72.16;101465.53;5011095;28;20050;-69
2022/05/12 05:45:26;;;;;;;18.25;3.20;;;;;;;14.23;72.44;101456.66;5013083;28;20050;-70
2022/05/12 05:47:58;;;;;;;16.33;3.15;;;;;;;14.10;73.16;101465.91;5004178;28;20065;-69
2022/05/12 05:50:29;;;;;;;12.98;2.92;;;;;;;13.94;73.43;101479.34;4993461;28;20054;-69
2022/05/12 05:53:42;;;;;;;21.25;3.78;;;;;;;13.83;74.54;101482.69;4992434;28;20505;-69
2022/05/12 05:55:43;;;;;;;15.77;3.38;;;;;;;14.05;73.90;101480.69;4980639;28;20062;-70
2022/05/12 05:58:11;;;;;;;11.77;2.50;;;;;;;14.38;72.51;101481.22;5008427;28;20054;-70
2022/05/12 06:00:39;;;;;;;13.85;3.08;;;;;;;14.44;71.81;101488.22;5007089;28;20075;-69
2022/05/12 06:03:07;;;;;;;16.08;3.30;;;;;;;14.49;70.58;101499.19;5012226;28;20420;-70
2022/05/12 06:05:41;;;;;;;19.77;2.97;;;;;;;13.76;73.53;101502.50;4995869;28;20072;-70
2022/05/12 06:08:11;;;;;;;18.70;4.45;;;;;;;13.81;73.53;101516.22;5014625;28;20057;-69
2022/05/12 06:10:38;;;;;;;17.40;3.03;;;;;;;14.05;72.68;101513.13;5015637;28;20385;-69
2022/05/12 06:13:06;;;;;;;12.50;3.13;;;;;;;14.06;72.87;101515.59;5004967;28;20519;-71
2022/05/12 06:15:34;;;;;;;22.00;3.83;;;;;;;14.43;71.50;101515.16;4984342;28;20518;-70
2022/05/12 06:18:14;;;;;;;16.95;3.83;;;;;;;14.47;70.59;101518.09;5017324;28;20519;-68
2022/05/12 06:20:43;;;;;;;15.02;3.78;;;;;;;14.74;69.38;101531.72;5004513;28;20058;-65
2022/05/12 06:23:12;;;;;;;15.07;3.70;;;;;;;14.70;69.36;101522.41;4971852;28;20054;-65
2022/05/12 06:25:39;;;;;;;20.58;3.85;;;;;;;14.92;69.26;101522.34;5009047;28;20053;-70
2022/05/12 06:28:07;;;;;;;14.75;3.45;;;;;;;15.18;68.35;101522.38;4995431;28;20050;-70
2022/05/12 06:30:36;;;;;;;17.67;2.75;;;;;;;15.51;67.98;101521.63;4992530;28;20066;-69
2022/05/12 06:33:04;;;;;;;19.40;3.33;;;;;;;15.70;66.25;101524.03;4982130;28;20528;-70
2022/05/12 06:35:32;;;;;;;19.50;3.13;;;;;;;15.91;65.70;101518.63;5015714;28;20049;-70
2022/05/12 06:37:59;;;;;;;18.75;3.20;;;;;;;15.76;65.19;101519.94;4990645;28;20050;-68
2022/05/12 06:40:26;;;;;;;16.33;3.33;;;;;;;16.11;64.37;101526.28;5006751;28;20057;-71
2022/05/12 06:42:58;;;;;;;12.10;2.63;;;;;;;16.02;63.07;101528.25;5013887;28;20137;-70
2022/05/12 06:45:32;;;;;;;14.50;3.28;;;;;;;16.11;63.61;101531.84;5002753;28;20057;-70
2022/05/12 06:47:59;;;;;;;14.27;3.47;;;;;;;16.33;62.44;101526.03;4987289;28;20061;-73
2022/05/12 06:50:28;;;;;;;11.20;2.92;;;;;;;16.57;62.87;101532.69;5004738;28;20077;-72
2022/05/12 06:52:56;;;;;;;17.20;3.15;;;;;;;16.53;61.27;101533.66;4983239;28;20049;-71
2022/05/12 06:55:27;;;;;;;15.98;3.65;;;;;;;16.04;60.72;101528.75;5018438;28;20053;-72
2022/05/12 06:57:57;;;;;;;12.40;2.67;;;;;;;16.08;61.33;101530.53;5010694;28;20050;-73
2022/05/12 07:00:33;;;;;;;14.77;3.25;;;;;;;16.14;60.64;101536.72;4995019;28;20046;-72
2022/05/12 07:03:04;;;;;;;15.02;3.53;;;;;;;16.44;59.96;101528.09;4977751;28;20041;-72
2022/05/12 07:05:34;;;;;;;12.75;2.72;;;;;;;16.29;59.87;101542.56;4993780;28;20064;-72
2022/05/12 07:08:02;;;;;;;15.02;3.33;;;;;;;16.82;59.51;101525.38;4997529;28;20054;-73
2022/05/12 07:10:29;;;;;;;17.17;2.70;;;;;;;17.12;58.06;101528.97;5013022;28;20049;-73
2022/05/12 07:12:57;;;;;;;17.92;3.47;;;;;;;17.44;57.46;101531.00;4984421;28;20045;-72
2022/05/12 07:15:27;;;;;;;13.68;3.17;;;;;;;17.01;56.93;101531.31;5005208;28;20065;-72
2022/05/12 07:17:56;;;;;;;16.80;2.72;;;;;;;16.81;57.22;101535.69;5016862;28;20053;-72
2022/05/12 07:26:36;;;;;;;14.63;3.35;;;;;;;17.55;55.57;101523.91;4992348;28;20046;-71
2022/05/12 07:29:04;;;;;;;15.68;3.50;;;;;;;17.65;54.95;101521.53;4990288;28;20049;-72
2022/05/12 07:31:32;;;;;;;16.63;3.30;;;;;;;17.49;55.24;101514.09;4993326;28;20054;-71
2022/05/12 07:34:00;;;;;;;14.85;3.25;;;;;;;17.68;55.60;101522.78;5013318;28;20057;-71
2022/05/12 07:36:32;;;;;;;17.88;3.70;;;;;;;17.84;54.91;101521.81;4994888;28;20412;-72
2022/05/12 07:39:00;;;;;;;14.77;3.17;;;;;;;18.22;54.70;101520.78;4994269;28;20064;-72
2022/05/12 07:41:28;;;;;;;14.10;3.42;;;;;;;18.30;53.61;101519.88;5012932;28;20046;-69
2022/05/12 07:43:56;;;;;;;16.73;3.22;;;;;;;18.29;52.05;101521.03;5008674;28;20054;-72
2022/05/12 07:46:27;;;;;;;15.70;2.97;;;;;;;18.12;52.27;101526.78;4976459;28;20501;-70
2022/05/12 07:48:55;;;;;;;19.23;3.53;;;;;;;17.86;52.32;101513.94;5014936;28;20069;-70
2022/05/12 07:51:22;;;;;;;13.35;2.63;;;;;;;17.74;51.92;101519.47;5013225;28;20054;-69
2022/05/12 07:53:50;;;;;;;10.63;2.72;;;;;;;17.13;53.46;101528.63;5010981;28;20056;-70
2022/05/12 07:56:20;;;;;;;11.50;3.08;;;;;;;17.55;52.87;101530.31;4993111;28;20050;-70
2022/05/12 07:58:48;;;;;;;17.48;3.78;;;;;;;18.03;52.55;101531.66;5000408;28;20049;-71
2022/05/12 08:01:17;;;;;;;14.25;3.70;;;;;;;18.52;50.91;101525.84;5003110;28;20062;-71
2022/05/12 08:03:45;;;;;;;12.93;3.00;;;;;;;18.70;49.79;101526.47;4978819;28;20050;-70
2022/05/12 08:06:15;;;;;;;13.05;2.95;;;;;;;18.04;50.51;101534.09;5009897;28;20064;-71
2022/05/12 08:08:43;;;;;;;15.13;2.90;;;;;;;18.28;50.28;101536.13;5005734;28;20049;-71
2022/05/12 08:11:12;;;;;;;14.65;2.50;;;;;;;18.47;49.70;101528.88;4997238;28;20062;-73
2022/05/12 08:13:42;;;;;;;13.90;3.00;;;;;;;17.37;50.92;101536.28;5004787;28;20613;-71
2022/05/12 08:16:10;;;;;;;;;;;;;;;17.88;50.97;101533.94;4991428;28;20049;-70
2022/05/12 08:18:37;;;;;;;9.65;2.22;;;;;;;18.49;49.17;101537.72;4995904;28;19936;-70
2022/05/12 08:21:05;;;;;;;13.45;2.42;;;;;;;18.91;48.20;101541.13;5014900;28;20057;-69
2022/05/12 08:23:32;;;;;;;12.43;2.33;;;;;;;19.06;46.61;101543.19;4999954;28;20045;-69
2022/05/12 08:25:59;;;;;;;9.18;2.33;;;;;;;18.80;46.48;101546.34;4996869;28;20529;-71
2022/05/12 08:28:27;;;;;;;13.18;2.35;;;;;;;18.88;46.90;101544.63;4982069;28;20049;-73
2022/05/12 08:30:54;;;;;;;11.30;2.67;;;;;;;18.93;46.80;101545.16;4994193;28;20064;-72
2022/05/12 08:33:22;;;;;;;11.77;2.53;;;;;;;19.06;46.04;101545.97;4995994;28;20041;-71
2022/05/12 08:35:51;;;;;;;6.65;1.40;;;;;;;18.50;47.07;101549.69;4951201;28;20057;-69
2022/05/12 08:38:19;;;;;;;10.88;2.03;;;;;;;18.09;47.05;101541.41;4990345;28;20049;-72
2022/05/12 08:41:16;;;;;;;12.98;2.15;;;;;;;18.59;46.90;101542.03;5007619;28;20052;-72
2022/05/12 08:43:44;;;;;;;10.80;2.05;;;;;;;18.10;48.52;101548.66;4977535;28;20062;-71
2022/05/12 08:46:18;;;;;;;10.32;2.05;;;;;;;18.42;48.49;101545.03;5001290;28;20054;-70
2022/05/12 08:48:47;;;;;;;9.90;2.05;;;;;;;18.69;48.16;101530.44;5001026;28;20358;-70
2022/05/12 08:51:17;;;;;;;13.95;2.22;;;;;;;18.54;47.56;101531.91;4989284;28;20073;-68
2022/05/12 08:53:58;;;;;;;10.25;2.15;;;;;;;18.69;47.57;101538.78;4997266;28;20056;-66
2022/05/12 08:56:25;;;;;;;11.85;3.10;;;;;;;19.12;46.90;101544.59;4995338;28;20061;-72
2022/05/12 08:58:55;;;;;;;13.27;2.28;;;;;;;18.58;48.02;101538.44;5014205;28;20046;-71
2022/05/12 09:02:17;;;;;;;12.93;2.70;;;;;;;18.94;47.27;101532.84;5003720;28;20485;-70
2022/05/12 09:04:51;;;;;;;13.10;2.22;;;;;;;19.20;46.34;101531.66;4991981;28;20050;-70
2022/05/12 09:07:27;;;;;;;8.07;1.92;;;;;;;18.54;47.31;101526.34;4988147;28;20055;-69
2022/05/12 09:10:10;;;;;;;12.00;2.50;;;;;;;18.71;47.00;101523.31;4985848;28;20069;-69
2022/05/12 09:12:45;;;;;;;12.73;2.63;;;;;;;18.34;47.79;101527.19;4995903;28;20054;-69
2022/05/12 09:15:19;;;;;;;8.80;2.45;;;;;;;18.01;48.36;101525.59;5005606;28;20528;-69
2022/05/12 09:18:06;;;;;;;11.10;2.75;;;;;;;18.53;47.83;101532.25;5002085;28;20054;-65
2022/05/12 09:20:35;;;;;;;13.27;2.95;;;;;;;18.97;47.42;101531.31;4993704;28;20046;-68
2022/05/12 09:23:04;;;;;;;8.95;1.60;;;;;;;18.70;47.03;101532.03;5010799;28;20042;-67
2022/05/12 09:25:43;;;;;;;6.35;1.65;;;;;;;18.72;46.31;101538.91;4992129;28;20053;-68
2022/05/12 09:28:33;;;;;;;9.68;2.17;;;;;;;18.81;46.50;101536.00;5012148;28;20053;-71
2022/05/12 09:31:15;;;;;;;12.65;2.30;;;;;;;18.13;48.07;101545.16;5006578;28;20058;-71
2022/05/12 09:33:45;;;;;;;7.63;2.22;;;;;;;18.10;49.18;101531.91;5009592;28;20061;-71
2022/05/12 09:36:17;;;;;;;;;;;;;;;18.11;48.45;101536.31;4993133;28;20069;-70
2022/05/12 09:38:46;;;;;;;10.65;2.30;;;;;;;18.33;47.99;101533.13;4988943;28;19930;-69
2022/05/12 09:41:16;;;;;;;13.75;2.90;;;;;;;18.48;47.83;101524.13;5002125;28;20045;-69
2022/05/12 09:43:44;;;;;;;8.10;2.17;;;;;;;18.87;47.39;101526.22;5012438;28;20049;-69
2022/05/12 09:46:17;;;;;;;9.88;2.17;;;;;;;18.75;47.90;101524.25;5005531;28;20061;-69
2022/05/12 09:48:48;;;;;;;8.18;2.17;;;;;;;18.77;47.65;101530.31;5010317;28;20055;-70
2022/05/12 09:51:24;;;;;;;10.07;2.03;;;;;;;18.63;47.52;101526.22;5005905;28;20045;-72
2022/05/12 09:53:54;;;;;;;12.73;2.50;;;;;;;17.53;50.52;101526.22;5008303;28;20046;-71
2022/05/12 09:56:32;;;;;;;11.40;2.38;;;;;;;18.20;49.78;101521.13;4978146;28;20053;-70
2022/05/12 09:59:10;;;;;;;12.02;3.08;;;;;;;18.60;48.99;101524.13;4993370;28;20058;-70
2022/05/12 10:02:11;;;;;;;11.65;2.40;;;;;;;18.97;48.97;101518.19;4988984;28;20425;-69
2022/05/12 10:10:19;;;;;;;12.52;2.50;;;;;;;19.65;46.21;101513.50;4997854;28;20095;-70
2022/05/12 10:13:06;;;;;;;;;;;;;;;19.98;46.21;101516.03;5017436;28;20066;-69
2022/05/12 10:15:38;;;;;;;13.73;2.58;;;;;;;19.87;46.01;101507.38;5011764;28;19958;-69
2022/05/12 10:18:37;;;;;;;13.30;3.58;;;;;;;20.37;44.41;101506.75;4990883;28;20046;-69
2022/05/12 10:21:15;;;;;;;57.97;27.35;;;;;;;20.06;44.76;101501.91;4991396;28;20049;-71
2022/05/12 10:23:46;;;;;;;10.40;3.33;;;;;;;19.75;46.30;101501.81;4997948;28;20056;-72
2022/05/12 10:26:22;;;;;;;13.85;3.00;;;;;;;19.64;45.87;101503.53;4996078;28;20045;-70
2022/05/12 10:28:58;;;;;;;13.13;3.45;;;;;;;20.06;45.10;101498.31;5005806;28;20521;-71
2022/05/12 10:31:53;;;;;;;13.85;4.30;;;;;;;20.29;44.28;101501.34;4998019;28;20065;-72
2022/05/12 10:34:48;;;;;;;13.35;4.07;;;;;;;20.59;43.74;101494.91;5013677;28;20046;-72
2022/05/12 10:37:34;;;;;;;11.65;2.83;;;;;;;20.73;43.48;101486.88;4994735;28;20065;-70
2022/05/12 10:40:22;;;;;;;16.58;3.20;;;;;;;21.16;42.96;101497.94;4973318;28;20064;-73
2022/05/12 10:42:53;;;;;;;11.18;3.22;;;;;;;20.97;42.97;101491.47;4977149;28;20057;-73
2022/05/12 10:45:30;;;;;;;11.73;2.70;;;;;;;20.79;43.46;101490.22;4981841;28;20057;-71
2022/05/12 10:48:15;;;;;;;13.30;2.83;;;;;;;21.09;42.77;101488.56;4980638;28;20038;-71
2022/05/12 10:51:01;;;;;;;11.95;2.70;;;;;;;20.97;42.63;101489.44;5007883;28;20077;-70
2022/05/12 10:53:59;;;;;;;13.85;2.78;;;;;;;20.73;42.91;101484.06;5000018;28;20069;-69
2022/05/12 10:56:55;;;;;;;11.80;2.80;;;;;;;21.03;42.71;101478.81;5011254;28;20053;-71
2022/05/12 10:59:44;;;;;;;13.30;3.83;;;;;;;20.77;43.56;101475.75;4988510;28;20041;-70
2022/05/12 11:02:35;;;;;;;11.00;4.13;;;;;;;21.17;43.07;101487.53;4978895;28;20065;-70
2022/05/12 11:05:21;;;;;;;13.30;6.60;;;;;;;21.13;42.39;101481.84;5012646;28;20080;-71
2022/05/12 11:07:53;;;;;;;11.80;5.30;;;;;;;20.98;42.79;101481.88;4996904;28;20053;-68
2022/05/12 11:10:26;;;;;;;10.65;3.10;;;;;;;20.54;42.70;101483.22;4996517;28;20056;-70
2022/05/12 11:12:57;;;;;;;9.15;2.60;;;;;;;20.42;42.67;101486.06;4977784;28;20054;-70
2022/05/12 11:15:32;;;;;;;8.93;2.47;;;;;;;20.93;42.16;101482.97;4995405;28;20046;-70
2022/05/12 11:18:04;;;;;;;9.35;2.60;;;;;;;20.74;42.18;101476.50;4991497;28;20489;-72
2022/05/12 11:20:43;;;;;;;9.20;2.20;;;;;;;20.78;41.83;101481.00;4980295;28;20054;-71
2022/05/12 11:23:22;;;;;;;11.00;2.30;;;;;;;20.67;42.31;101482.75;4997775;28;20064;-70
2022/05/12 11:25:56;;;;;;;10.77;1.98;;;;;;;21.02;42.57;101486.41;4985263;28;20050;-71
2022/05/12 11:31:21;;;;;;;11.73;3.53;;;;;;;20.65;43.05;101479.50;4989748;28;20065;-69
2022/05/12 11:33:52;;;;;;;8.55;2.80;;;;;;;21.05;42.57;101482.06;4993811;28;20050;-71
2022/05/12 11:36:19;;;;;;;11.93;4.22;;;;;;;21.19;42.27;101476.78;4978441;28;20075;-72
2022/05/12 11:38:50;;;;;;;8.20;2.53;;;;;;;20.83;42.58;101474.31;5009238;28;20053;-70
2022/05/12 11:41:20;;;;;;;10.48;3.13;;;;;;;20.43;43.93;101468.13;4994480;28;20046;-70
2022/05/12 11:46:41;;;;;;;34.55;16.73;;;;;;;20.80;43.76;101478.66;5003549;28;20507;-72
2022/05/12 11:49:43;;;;;;;20.30;7.90;;;;;;;20.89;43.10;101486.84;5005732;28;20042;-71
2022/05/12 11:52:22;;;;;;;11.27;4.15;;;;;;;20.40;43.97;101480.84;5015425;28;20050;-71
2022/05/12 11:54:58;;;;;;;15.23;5.05;;;;;;;20.64;43.47;101485.47;4989643;28;20405;-71
2022/05/12 11:57:37;;;;;;;12.90;2.53;;;;;;;20.62;43.77;101485.00;4997434;28;20144;-72
2022/05/12 12:00:10;;;;;;;13.15;2.83;;;;;;;20.37;44.52;101489.97;4993149;28;20050;-72